Impacts METAR Board
IDs:

KJFK - New York/Kennedy Int, NY, US

Updated at: 2200 UTC 01 Feb 2023
Potential Impact None Slight Moderate High
Time 01/10Z 01/11Z 01/12Z 01/13Z 01/14Z 01/15Z 01/16Z 01/17Z 01/18Z 01/19Z 01/20Z 01/21Z 01/22Z
Temp28 26 27 27 29 29 31 33 36 37 36 36 37
Dewpt23 24 23 24 22 20 23 21 21 19 21 20 12
Altim30.24 30.24 30.27 30.27 30.28 30.30 30.29 30.28 30.25 30.23 30.22 30.23 30.24
VIS5 4 10 10 10 10 10 10 10 10 10 10 10
CIG33 31 15 13 47 47 47 -- 50 -- -- -- --
CoverOVCOVCOVCBKNBKNBKNBKNSCTBKNSCTFEWFEWFEW
FltCatMVFRMVFRMVFRMVFRVFRVFRVFRVFRVFRVFRVFRVFRVFR
WX-SN-SN BR----------------------
WDir30201030201020340260250240220270
WSpd13 8 8 10 9 7 6 4 9 9 8 9 11
WGst-- -- -- -- -- -- -- -- -- -- 16 -- --
Raw hourly METARs
KJFK 010951Z 03013KT 5SM -SN BKN033 OVC090 M02/M05 A3024 RMK AO2 SLP239 P0000 T10221050
KJFK 011051Z 02008KT 4SM -SN BR FEW011 OVC031 M03/M04 A3024 RMK AO2 SLP238 P0001 T10331044
KJFK 011151Z 01008KT 10SM BKN015 BKN036 OVC100 M03/M05 A3027 RMK AO2 SNE30 SLP249 CIG 012V018 P0001 60002 70004 T10281050 11006 21033 53016
KJFK 011251Z 03010KT 10SM BKN013 BKN055 BKN110 M03/M04 A3027 RMK AO2 SLP251 T10281044
KJFK 011351Z 02009KT 10SM SCT015 BKN047 BKN110 M02/M06 A3028 RMK AO2 SLP252 T10171056
KJFK 011451Z 01007KT 10SM SCT017 BKN047 BKN110 M02/M07 A3030 RMK AO2 SLP259 T10171067 53010
KJFK 011551Z 02006KT 10SM FEW022 BKN047 M01/M05 A3029 RMK AO2 SLP258 T10061050
KJFK 011651Z 34004KT 10SM SCT048 SCT120 01/M06 A3028 RMK AO2 SLP254 T00061061
KJFK 011751Z 26009KT 10SM SCT034 BKN050 BKN120 BKN250 02/M06 A3025 RMK AO2 SLP244 T00221061 10022 21028 58014
KJFK 011851Z 25009KT 10SM SCT042 SCT120 SCT250 03/M07 A3023 RMK AO2 SLP236 T00281072
KJFK 011951Z 24008G16KT 10SM FEW042 FEW250 02/M06 A3022 RMK AO2 SLP232 T00221061
KJFK 012051Z 22009KT 10SM FEW042 FEW250 02/M07 A3023 RMK AO2 SLP235 T00221067 55009
KJFK 012151Z 27011KT 10SM FEW042 FEW250 03/M11 A3024 RMK AO2 SLP238 T00281111



Page loaded:  22:44 UTC  |   02:44 PM Pacific  |   03:44 PM Mountain  |   04:44 PM Central  |   05:44 PM Eastern

 

ADVISORIES

FORECASTS

FORECASTS

OBSERVATIONS

USER TOOLS

ABOUT US